Time,TemperatureF,DewpointF,PressureIn,WindDirection,WindDirectionDegrees,WindSpeedMPH,WindSpeedGustMPH,Humidity,HourlyPrecipIn,Conditions,Clouds,dailyrainin,SoftwareType,DateUTC
2013-09-03 01:21:00,53.0,46.0,-100.00,SSE,155,4.0,-999.0,79,-99.99,,,-99.99,,2013-09-03 09:21:00,
2013-09-03 01:33:00,53.0,46.0,-100.00,SSE,155,4.0,-999.0,79,-99.99,,,-99.99,,2013-09-03 09:33:00,
2013-09-03 01:43:00,53.0,46.0,-100.00,SSE,155,4.0,-999.0,79,-99.99,,,-99.99,,2013-09-03 09:43:00,
2013-09-03 01:53:00,52.0,46.0,-100.00,SSE,155,4.0,9.0,80,-99.99,,,-99.99,,2013-09-03 09:53:00,
2013-09-03 02:03:00,52.0,46.0,-100.00,SSE,155,4.0,9.0,80,-99.99,,,-99.99,,2013-09-03 10:03:00,
2013-09-03 02:12:00,52.0,46.0,-100.00,SSE,155,4.0,9.0,80,-99.99,,,-99.99,,2013-09-03 10:12:00,
2013-09-03 02:23:00,53.0,43.0,-100.00,SSE,165,4.0,7.0,68,0.00,,,-99.99,,2013-09-03 10:23:00,
2013-09-03 02:33:00,53.0,43.0,-100.00,SSE,165,4.0,7.0,68,0.00,,,-99.99,,2013-09-03 10:33:00,
2013-09-03 02:42:00,53.0,43.0,-100.00,SSE,165,4.0,7.0,68,0.00,,,-99.99,,2013-09-03 10:42:00,
2013-09-03 02:53:00,53.0,42.0,-100.00,SSE,150,4.0,11.0,65,0.00,,,-99.99,,2013-09-03 10:53:00,
2013-09-03 03:02:00,53.0,42.0,-100.00,SSE,150,4.0,11.0,65,0.00,,,-99.99,,2013-09-03 11:02:00,
2013-09-03 03:12:00,53.0,42.0,-100.00,SSE,150,4.0,11.0,65,0.00,,,-99.99,,2013-09-03 11:12:00,
2013-09-03 03:22:00,52.0,42.0,-100.00,South,185,2.0,11.0,69,0.00,,,-99.99,,2013-09-03 11:22:00,
2013-09-03 03:33:00,52.0,42.0,-100.00,South,185,2.0,11.0,69,0.00,,,-99.99,,2013-09-03 11:33:00,
2013-09-03 03:42:00,52.0,42.0,-100.00,South,185,2.0,11.0,69,0.00,,,-99.99,,2013-09-03 11:42:00,
2013-09-03 03:52:00,51.0,42.0,-100.00,South,175,1.0,5.0,71,0.00,,,-99.99,,2013-09-03 11:52:00,
2013-09-03 04:02:00,51.0,42.0,-100.00,South,175,1.0,5.0,71,0.00,,,-99.99,,2013-09-03 12:02:00,
2013-09-03 04:12:00,51.0,42.0,-100.00,South,175,1.0,5.0,71,0.00,,,-99.99,,2013-09-03 12:12:00,
2013-09-03 04:21:00,51.0,42.0,-100.00,South,185,1.0,7.0,71,0.00,,,-99.99,,2013-09-03 12:21:00,
2013-09-03 04:31:00,51.0,42.0,-100.00,South,185,1.0,7.0,71,0.00,,,-99.99,,2013-09-03 12:31:00,
2013-09-03 04:42:00,51.0,42.0,-100.00,South,185,1.0,7.0,71,0.00,,,-99.99,,2013-09-03 12:42:00,
2013-09-03 04:52:00,51.0,42.0,-100.00,South,185,1.0,4.0,69,0.00,,,-99.99,,2013-09-03 12:52:00,
2013-09-03 05:02:00,51.0,42.0,-100.00,South,185,1.0,4.0,69,0.00,,,-99.99,,2013-09-03 13:02:00,
2013-09-03 05:11:00,51.0,42.0,-100.00,South,185,1.0,4.0,69,0.00,,,-99.99,,2013-09-03 13:11:00,
2013-09-03 05:21:00,51.0,42.0,-100.00,SSW,195,1.0,4.0,70,0.00,,,-99.99,,2013-09-03 13:21:00,
2013-09-03 05:32:00,51.0,42.0,-100.00,SSW,195,1.0,4.0,70,0.00,,,-99.99,,2013-09-03 13:32:00,
2013-09-03 05:42:00,51.0,42.0,-100.00,SSW,195,1.0,4.0,70,0.00,,,-99.99,,2013-09-03 13:42:00,
2013-09-03 05:52:00,52.0,40.0,-100.00,SW,215,2.0,4.0,64,0.00,,,-99.99,,2013-09-03 13:52:00,
2013-09-03 06:01:00,52.0,40.0,-100.00,SW,215,2.0,4.0,64,0.00,,,-99.99,,2013-09-03 14:01:00,
2013-09-03 06:11:00,52.0,40.0,-100.00,SW,215,2.0,4.0,64,0.00,,,-99.99,,2013-09-03 14:11:00,
2013-09-03 06:21:00,51.0,41.0,-100.00,SSE,155,2.0,4.0,68,0.00,,,-99.99,,2013-09-03 14:21:00,
2013-09-03 06:32:00,51.0,41.0,-100.00,SSE,155,2.0,4.0,68,0.00,,,-99.99,,2013-09-03 14:32:00,
2013-09-03 06:42:00,51.0,41.0,-100.00,SSE,155,2.0,4.0,68,0.00,,,-99.99,,2013-09-03 14:42:00,
2013-09-03 06:52:00,51.0,41.0,-100.00,East,90,2.0,6.0,67,0.00,,,-99.99,,2013-09-03 14:52:00,
2013-09-03 07:02:00,51.0,41.0,-100.00,East,90,2.0,6.0,67,0.00,,,-99.99,,2013-09-03 15:02:00,
2013-09-03 07:22:00,51.0,40.0,-100.00,ENE,70,2.0,6.0,65,0.00,,,-99.99,,2013-09-03 15:22:00,
2013-09-03 07:34:00,51.0,40.0,-100.00,ENE,70,2.0,6.0,65,0.00,,,-99.99,,2013-09-03 15:34:00,
2013-09-03 07:43:00,51.0,40.0,-100.00,ENE,70,2.0,6.0,65,0.00,,,-99.99,,2013-09-03 15:43:00,
2013-09-03 07:53:00,52.0,40.0,-100.00,ENE,60,3.0,8.0,64,0.00,,,-99.99,,2013-09-03 15:53:00,
2013-09-03 08:04:00,52.0,40.0,-100.00,ENE,60,3.0,8.0,64,0.00,,,-99.99,,2013-09-03 16:04:00,
2013-09-03 08:14:00,52.0,40.0,-100.00,ENE,60,3.0,8.0,64,0.00,,,-99.99,,2013-09-03 16:14:00,
2013-09-03 08:24:00,52.0,40.0,-100.00,ESE,110,2.0,11.0,62,0.00,,,-99.99,,2013-09-03 16:24:00,
2013-09-03 08:33:00,52.0,40.0,-100.00,ESE,110,2.0,11.0,62,0.00,,,-99.99,,2013-09-03 16:33:00,
2013-09-03 08:43:00,52.0,40.0,-100.00,ESE,110,2.0,11.0,62,0.00,,,-99.99,,2013-09-03 16:43:00,
2013-09-03 08:54:00,51.0,40.0,-100.00,SSE,155,2.0,8.0,65,0.00,,,-99.99,,2013-09-03 16:54:00,
2013-09-03 09:03:00,51.0,40.0,-100.00,SSE,155,2.0,8.0,65,0.00,,,-99.99,,2013-09-03 17:03:00,
2013-09-03 09:13:00,51.0,40.0,-100.00,SSE,155,2.0,8.0,65,0.00,,,-99.99,,2013-09-03 17:13:00,
2013-09-03 09:23:00,51.0,40.0,-100.00,ESE,120,3.0,9.0,65,0.00,,,-99.99,,2013-09-03 17:23:00,
2013-09-03 09:34:00,51.0,40.0,-100.00,ESE,120,3.0,9.0,65,0.00,,,-99.99,,2013-09-03 17:34:00,
2013-09-03 09:43:00,51.0,40.0,-100.00,ESE,120,3.0,9.0,65,0.00,,,-99.99,,2013-09-03 17:43:00,
2013-09-03 09:52:00,51.0,40.0,-100.00,SE,135,3.0,9.0,65,0.00,,,-99.99,,2013-09-03 17:52:00,
2013-09-03 10:02:00,51.0,40.0,-100.00,SE,135,3.0,9.0,65,0.00,,,-99.99,,2013-09-03 18:02:00,
2013-09-03 10:12:00,51.0,40.0,-100.00,SE,135,3.0,9.0,65,0.00,,,-99.99,,2013-09-03 18:12:00,
2013-09-03 10:22:00,51.0,40.0,-100.00,ENE,75,6.0,12.0,66,0.00,,,-99.99,,2013-09-03 18:22:00,
2013-09-03 10:32:00,51.0,40.0,-100.00,ENE,75,6.0,12.0,66,0.00,,,-99.99,,2013-09-03 18:32:00,
2013-09-03 10:43:00,51.0,40.0,-100.00,ENE,75,6.0,12.0,66,0.00,,,-99.99,,2013-09-03 18:43:00,
2013-09-03 10:52:00,51.0,40.0,-100.00,East,80,4.0,9.0,66,0.00,,,-99.99,,2013-09-03 18:52:00,
2013-09-03 11:02:00,51.0,40.0,-100.00,East,80,4.0,9.0,66,0.00,,,-99.99,,2013-09-03 19:02:00,
2013-09-03 11:11:00,51.0,40.0,-100.00,East,80,4.0,9.0,66,0.00,,,-99.99,,2013-09-03 19:11:00,
2013-09-03 11:22:00,51.0,41.0,-100.00,ESE,120,3.0,11.0,68,0.00,,,-99.99,,2013-09-03 19:22:00,
2013-09-03 11:32:00,51.0,41.0,-100.00,ESE,120,3.0,11.0,68,0.00,,,-99.99,,2013-09-03 19:32:00,
2013-09-03 11:42:00,51.0,41.0,-100.00,ESE,120,3.0,11.0,68,0.00,,,-99.99,,2013-09-03 19:42:00,
2013-09-03 11:52:00,52.0,40.0,-100.00,ENE,60,6.0,12.0,62,0.00,,,-99.99,,2013-09-03 19:52:00,
2013-09-03 12:02:00,52.0,40.0,-100.00,ENE,60,6.0,12.0,62,0.00,,,-99.99,,2013-09-03 20:02:00,
2013-09-03 12:11:00,52.0,40.0,-100.00,ENE,60,6.0,12.0,62,0.00,,,-99.99,,2013-09-03 20:11:00,
2013-09-03 12:22:00,53.0,40.0,-100.00,ESE,115,3.0,9.0,60,0.00,,,-99.99,,2013-09-03 20:22:00,
2013-09-03 12:32:00,53.0,40.0,-100.00,ESE,115,3.0,9.0,60,0.00,,,-99.99,,2013-09-03 20:32:00,
2013-09-03 12:42:00,53.0,40.0,-100.00,ESE,115,3.0,9.0,60,0.00,,,-99.99,,2013-09-03 20:42:00,
2013-09-03 12:52:00,56.0,40.0,-100.00,SSE,150,1.0,9.0,54,0.00,,,-99.99,,2013-09-03 20:52:00,
2013-09-03 13:01:00,56.0,40.0,-100.00,SSE,150,1.0,9.0,54,0.00,,,-99.99,,2013-09-03 21:01:00,
2013-09-03 13:12:00,56.0,40.0,-100.00,SSE,150,1.0,9.0,54,0.00,,,-99.99,,2013-09-03 21:12:00,
2013-09-03 13:22:00,54.0,40.0,-100.00,East,95,4.0,15.0,58,0.00,,,-99.99,,2013-09-03 21:22:00,
2013-09-03 13:34:00,54.0,40.0,-100.00,East,95,4.0,15.0,58,0.00,,,-99.99,,2013-09-03 21:34:00,
2013-09-03 13:44:00,54.0,40.0,-100.00,East,95,4.0,15.0,58,0.00,,,-99.99,,2013-09-03 21:44:00,
2013-09-03 13:54:00,56.0,40.0,-100.00,ESE,105,3.0,9.0,55,0.00,,,-99.99,,2013-09-03 21:54:00,
2013-09-03 14:04:00,56.0,40.0,-100.00,ESE,105,3.0,9.0,55,0.00,,,-99.99,,2013-09-03 22:04:00,
2013-09-03 14:13:00,56.0,40.0,-100.00,ESE,105,3.0,9.0,55,0.00,,,-99.99,,2013-09-03 22:13:00,
2013-09-03 14:23:00,57.0,41.0,-100.00,SE,145,2.0,9.0,55,0.00,,,-99.99,,2013-09-03 22:23:00,
2013-09-03 14:34:00,57.0,41.0,-100.00,SE,145,2.0,9.0,55,0.00,,,-99.99,,2013-09-03 22:34:00,
2013-09-03 14:42:00,57.0,41.0,-100.00,SE,145,2.0,9.0,55,0.00,,,-99.99,,2013-09-03 22:42:00,
2013-09-03 14:52:00,58.0,41.0,-100.00,ESE,115,2.0,9.0,53,0.00,,,-99.99,,2013-09-03 22:52:00,
2013-09-03 15:04:00,58.0,41.0,-100.00,ESE,115,2.0,9.0,53,0.00,,,-99.99,,2013-09-03 23:04:00,
2013-09-03 15:12:00,58.0,41.0,-100.00,ESE,115,2.0,9.0,53,0.00,,,-99.99,,2013-09-03 23:12:00,
2013-09-03 15:22:00,59.0,41.0,-100.00,SE,140,3.0,10.0,50,0.00,,,-99.99,,2013-09-03 23:22:00,
2013-09-03 15:34:00,59.0,41.0,-100.00,SE,140,3.0,10.0,50,0.00,,,-99.99,,2013-09-03 23:34:00,
2013-09-03 15:42:00,59.0,41.0,-100.00,SE,140,3.0,10.0,50,0.00,,,-99.99,,2013-09-03 23:42:00,
2013-09-03 15:53:00,59.0,42.0,-100.00,SE,145,2.0,9.0,53,0.00,,,-99.99,,2013-09-03 23:53:00,
2013-09-03 16:02:00,59.0,42.0,-100.00,SE,145,2.0,9.0,53,0.00,,,-99.99,,2013-09-04 00:02:00,
2013-09-03 16:11:00,59.0,42.0,-100.00,SE,145,2.0,9.0,53,0.00,,,-99.99,,2013-09-04 00:11:00,
2013-09-03 16:22:00,60.0,42.0,-100.00,North,10,1.0,6.0,53,0.00,,,-99.99,,2013-09-04 00:22:00,
2013-09-03 16:32:00,60.0,42.0,-100.00,North,10,1.0,6.0,53,0.00,,,-99.99,,2013-09-04 00:32:00,
2013-09-03 16:42:00,60.0,42.0,-100.00,North,10,1.0,6.0,53,0.00,,,-99.99,,2013-09-04 00:42:00,
2013-09-03 16:52:00,60.0,43.0,-100.00,SSW,205,1.0,7.0,52,0.00,,,-99.99,,2013-09-04 00:52:00,
2013-09-03 17:01:00,60.0,43.0,-100.00,SSW,205,1.0,7.0,52,0.00,,,-99.99,,2013-09-04 01:01:00,
2013-09-03 17:11:00,60.0,43.0,-100.00,SSW,205,1.0,7.0,52,0.00,,,-99.99,,2013-09-04 01:11:00,
2013-09-03 17:21:00,60.0,43.0,-100.00,SE,135,2.0,6.0,52,0.00,,,-99.99,,2013-09-04 01:21:00,
2013-09-03 17:32:00,60.0,43.0,-100.00,SE,135,2.0,6.0,52,0.00,,,-99.99,,2013-09-04 01:32:00,
2013-09-03 17:42:00,60.0,43.0,-100.00,SE,135,2.0,6.0,52,0.00,,,-99.99,,2013-09-04 01:42:00,
2013-09-03 17:52:00,60.0,42.0,-100.00,East,100,2.0,5.0,51,0.00,,,-99.99,,2013-09-04 01:52:00,
2013-09-03 18:02:00,60.0,42.0,-100.00,East,100,2.0,5.0,51,0.00,,,-99.99,,2013-09-04 02:02:00,
2013-09-03 18:11:00,60.0,42.0,-100.00,East,100,2.0,5.0,51,0.00,,,-99.99,,2013-09-04 02:11:00,
2013-09-03 18:22:00,65.0,43.0,-100.00,SE,125,1.0,6.0,44,0.00,,,-99.99,,2013-09-04 02:22:00,
2013-09-03 18:32:00,65.0,43.0,-100.00,SE,125,1.0,6.0,44,0.00,,,-99.99,,2013-09-04 02:32:00,
2013-09-03 18:42:00,65.0,43.0,-100.00,SE,125,1.0,6.0,44,0.00,,,-99.99,,2013-09-04 02:42:00,
2013-09-03 20:24:00,53.0,47.0,-100.00,South,190,6.0,16.0,82,0.05,,,-99.99,,2013-09-04 04:24:00,
2013-09-03 20:33:00,53.0,47.0,-100.00,South,190,6.0,16.0,82,0.05,,,-99.99,,2013-09-04 04:33:00,
2013-09-03 20:44:00,53.0,47.0,-100.00,South,190,6.0,16.0,82,0.05,,,-99.99,,2013-09-04 04:44:00,
2013-09-03 20:54:00,51.0,47.0,-100.00,SSE,155,6.0,13.0,87,0.07,,,-99.99,,2013-09-04 04:54:00,
2013-09-03 21:03:00,51.0,47.0,-100.00,SSE,155,6.0,13.0,87,0.07,,,-99.99,,2013-09-04 05:03:00,
2013-09-03 21:12:00,51.0,47.0,-100.00,SSE,155,6.0,13.0,87,0.07,,,-99.99,,2013-09-04 05:12:00,
2013-09-03 21:23:00,50.0,46.0,-100.00,SSW,195,6.0,14.0,84,0.03,,,-99.99,,2013-09-04 05:23:00,
2013-09-03 21:34:00,50.0,46.0,-100.00,SSW,195,6.0,14.0,84,0.03,,,-99.99,,2013-09-04 05:34:00,
2013-09-03 21:43:00,50.0,46.0,-100.00,SSW,195,6.0,14.0,84,0.03,,,-99.99,,2013-09-04 05:43:00,
2013-09-03 21:52:00,50.0,44.0,-100.00,SSE,155,4.0,14.0,80,0.01,,,-99.99,,2013-09-04 05:52:00,
2013-09-03 22:02:00,50.0,44.0,-100.00,SSE,155,4.0,14.0,80,0.01,,,-99.99,,2013-09-04 06:02:00,
2013-09-03 22:12:00,50.0,44.0,-100.00,SSE,155,4.0,14.0,80,0.01,,,-99.99,,2013-09-04 06:12:00,
2013-09-03 22:22:00,49.0,45.0,-100.00,SSE,150,4.0,11.0,84,0.00,,,-99.99,,2013-09-04 06:22:00,
2013-09-03 22:32:00,49.0,45.0,-100.00,SSE,150,4.0,11.0,84,0.00,,,-99.99,,2013-09-04 06:32:00,
2013-09-03 22:42:00,49.0,45.0,-100.00,SSE,150,4.0,11.0,84,0.00,,,-99.99,,2013-09-04 06:42:00,
2013-09-03 22:52:00,49.0,44.0,-100.00,NE,55,1.0,9.0,85,0.00,,,-99.99,,2013-09-04 06:52:00,
2013-09-03 23:02:00,49.0,44.0,-100.00,NE,55,1.0,9.0,85,0.00,,,-99.99,,2013-09-04 07:02:00,
2013-09-03 23:11:00,49.0,44.0,-100.00,NE,55,1.0,9.0,85,0.00,,,-99.99,,2013-09-04 07:11:00,
2013-09-03 23:22:00,49.0,44.0,-100.00,SSW,210,4.0,9.0,86,0.00,,,-99.99,,2013-09-04 07:22:00,
2013-09-03 23:32:00,49.0,44.0,-100.00,SSW,210,4.0,9.0,86,0.00,,,-99.99,,2013-09-04 07:32:00,
2013-09-03 23:42:00,49.0,44.0,-100.00,SSW,210,4.0,9.0,86,0.00,,,-99.99,,2013-09-04 07:42:00,
2013-09-03 23:52:00,47.0,44.0,-100.00,South,175,4.0,10.0,89,0.00,,,-99.99,,2013-09-04 07:52:00,